Time;durP1;ratioP1;P1;durP2;ratioP2;P2;SDS_P1;SDS_P2;PMS_P1;PMS_P2;Temp;Humidity;BMP_temperature;BMP_pressure;BME280_temperature;BME280_humidity;BME280_pressure;Samples;Min_cycle;Max_cycle;Signal;HPM_P1;HPM_P2
2022/03/07 00:01:06;;;;;;;0.00;0.00;;;1.00;99.90;;;;;;4986404;28;20037;-72
2022/03/07 00:03:32;;;;;;;1.20;0.77;;;1.00;99.90;;;;;;4996138;28;20030;-72
2022/03/07 00:05:57;;;;;;;0.08;0.08;;;1.00;99.90;;;;;;4989725;28;20054;-72
2022/03/07 00:08:23;;;;;;;0.55;0.17;;;1.00;99.90;;;;;;5006815;28;20075;-72
2022/03/07 00:10:49;;;;;;;0.00;0.00;;;0.90;99.90;;;;;;5002276;28;20053;-72
2022/03/07 00:13:14;;;;;;;0.38;0.22;;;1.00;99.90;;;;;;4987269;28;20124;-72
2022/03/07 00:15:40;;;;;;;0.28;0.25;;;0.90;99.90;;;;;;4997445;28;20129;-72
2022/03/07 00:18:06;;;;;;;0.40;0.40;;;0.90;99.90;;;;;;4996980;28;20048;-72
2022/03/07 00:20:32;;;;;;;0.00;0.00;;;0.90;99.90;;;;;;4991448;28;20475;-72
2022/03/07 00:22:58;;;;;;;0.10;0.10;;;0.90;99.90;;;;;;4994437;28;20084;-72
2022/03/07 00:25:24;;;;;;;0.20;0.20;;;1.00;99.90;;;;;;5007702;28;20029;-72
2022/03/07 00:27:50;;;;;;;0.65;0.40;;;1.00;99.90;;;;;;4991622;28;20042;-72
2022/03/07 00:30:17;;;;;;;0.40;0.40;;;1.00;99.90;;;;;;4995342;28;20053;-72
2022/03/07 00:32:43;;;;;;;0.50;0.50;;;0.80;99.90;;;;;;4993047;28;20463;-72
2022/03/07 00:35:10;;;;;;;0.43;0.20;;;0.80;99.90;;;;;;5012238;28;20045;-72
2022/03/07 00:37:37;;;;;;;0.10;0.10;;;0.80;99.90;;;;;;4986890;28;20041;-72
2022/03/07 00:40:04;;;;;;;0.10;0.10;;;0.70;99.90;;;;;;4993192;28;20046;-72
2022/03/07 00:42:30;;;;;;;0.10;0.10;;;0.70;99.90;;;;;;5006679;28;20042;-72
2022/03/07 00:44:55;;;;;;;0.20;0.20;;;0.50;99.90;;;;;;4983647;28;20195;-72
2022/03/07 00:47:21;;;;;;;0.60;0.30;;;0.60;99.90;;;;;;5007291;28;20064;-72
2022/03/07 00:49:47;;;;;;;0.25;0.20;;;0.60;99.90;;;;;;4994567;28;20078;-72
2022/03/07 00:52:12;;;;;;;0.20;0.15;;;0.50;99.90;;;;;;4996898;28;20615;-72
2022/03/07 00:54:38;;;;;;;0.28;0.28;;;0.50;99.90;;;;;;4991683;28;20119;-73
2022/03/07 00:57:04;;;;;;;0.08;0.08;;;0.50;99.90;;;;;;5008695;28;20048;-72
2022/03/07 00:59:29;;;;;;;0.20;0.20;;;0.40;99.90;;;;;;4980304;28;20548;-72
2022/03/07 01:01:55;;;;;;;0.30;0.25;;;0.40;99.90;;;;;;4996249;28;20112;-72
2022/03/07 01:04:20;;;;;;;3.38;0.25;;;0.40;99.90;;;;;;4992814;28;20048;-72
2022/03/07 01:06:46;;;;;;;0.10;0.10;;;0.40;99.90;;;;;;4996333;28;20436;-72
2022/03/07 01:09:12;;;;;;;0.75;0.52;;;0.40;99.90;;;;;;4991726;28;20052;-72
2022/03/07 01:11:37;;;;;;;0.20;0.20;;;0.30;99.90;;;;;;4980322;28;21769;-72
2022/03/07 01:14:03;;;;;;;0.20;0.20;;;0.30;99.90;;;;;;4989885;28;20423;-72
2022/03/07 01:16:28;;;;;;;0.32;0.20;;;0.30;99.90;;;;;;4995894;28;20049;-72
2022/03/07 01:18:54;;;;;;;0.38;0.38;;;0.30;99.90;;;;;;5002626;28;20026;-72
2022/03/07 01:21:20;;;;;;;0.57;0.20;;;0.20;99.90;;;;;;4989601;28;20660;-72
2022/03/07 01:23:45;;;;;;;0.10;0.10;;;0.20;99.90;;;;;;4983137;28;20029;-72
2022/03/07 01:26:11;;;;;;;0.30;0.30;;;0.30;99.90;;;;;;4994232;28;20059;-72
2022/03/07 01:28:36;;;;;;;0.70;0.35;;;0.30;99.90;;;;;;4994121;28;20057;-72
2022/03/07 01:31:02;;;;;;;0.08;0.08;;;0.40;99.90;;;;;;4998259;28;20091;-72
2022/03/07 01:33:27;;;;;;;0.30;0.30;;;0.40;99.90;;;;;;4980847;28;20060;-73
2022/03/07 01:35:53;;;;;;;0.52;0.52;;;0.50;99.90;;;;;;4994845;28;20068;-72
2022/03/07 01:38:19;;;;;;;0.20;0.20;;;0.50;99.90;;;;;;4998423;28;20042;-72
2022/03/07 01:40:45;;;;;;;0.60;0.30;;;0.50;99.90;;;;;;4989444;28;20041;-72
2022/03/07 01:43:11;;;;;;;0.25;0.25;;;0.50;99.90;;;;;;4985404;28;20494;-73
2022/03/07 01:45:41;;;;;;;0.55;0.55;;;0.40;99.90;;;;;;4998580;28;20085;-73
2022/03/07 01:48:07;;;;;;;0.10;0.10;;;0.40;99.90;;;;;;4993632;28;20095;-72
2022/03/07 01:50:32;;;;;;;0.13;0.13;;;0.30;99.90;;;;;;4977157;28;20048;-72
2022/03/07 01:52:58;;;;;;;0.32;0.32;;;0.20;99.90;;;;;;4993840;28;20111;-73
2022/03/07 01:55:24;;;;;;;0.15;0.10;;;0.20;99.90;;;;;;4976717;28;20058;-73
2022/03/07 01:57:49;;;;;;;1.00;0.55;;;0.20;99.90;;;;;;4993184;28;20045;-73
2022/03/07 02:00:19;;;;;;;0.10;0.10;;;0.10;99.90;;;;;;4978976;28;20495;-73
2022/03/07 02:02:45;;;;;;;0.10;0.10;;;0.10;99.90;;;;;;4998006;28;20080;-72
2022/03/07 02:05:11;;;;;;;0.43;0.43;;;0.10;99.90;;;;;;4997455;28;20034;-72
2022/03/07 02:07:38;;;;;;;0.10;0.10;;;0.00;99.90;;;;;;4998126;28;20119;-73
2022/03/07 02:10:05;;;;;;;0.08;0.08;;;0.00;99.90;;;;;;4996517;28;20045;-72
2022/03/07 02:12:30;;;;;;;0.22;0.20;;;0.00;99.90;;;;;;4992593;28;20087;-72
2022/03/07 02:14:56;;;;;;;0.32;0.32;;;0.00;99.90;;;;;;5002176;28;20072;-73
2022/03/07 02:17:22;;;;;;;0.20;0.20;;;-0.10;99.90;;;;;;4987247;28;20056;-72
2022/03/07 02:19:48;;;;;;;0.10;0.10;;;-0.10;99.90;;;;;;4975625;28;20161;-73
2022/03/07 02:22:16;;;;;;;0.47;0.47;;;-0.10;99.90;;;;;;4999500;28;20501;-73
2022/03/07 02:24:43;;;;;;;0.30;0.10;;;-0.10;99.90;;;;;;4983483;28;20149;-73
2022/03/07 02:27:10;;;;;;;0.10;0.10;;;-0.20;99.90;;;;;;4999810;28;20547;-73
2022/03/07 02:29:37;;;;;;;0.10;0.10;;;-0.20;99.90;;;;;;4981336;28;20483;-72
2022/03/07 02:32:05;;;;;;;0.20;0.20;;;-0.10;99.90;;;;;;5004458;28;20037;-72
2022/03/07 02:34:31;;;;;;;0.65;0.25;;;-0.20;99.90;;;;;;5000089;28;20061;-73
2022/03/07 02:36:57;;;;;;;0.20;0.20;;;-0.20;99.90;;;;;;4982435;28;20093;-72
2022/03/07 02:39:23;;;;;;;0.10;0.10;;;-0.20;99.90;;;;;;4998059;28;20712;-73
2022/03/07 02:41:48;;;;;;;0.38;0.22;;;-0.20;99.90;;;;;;4995215;28;20095;-73
2022/03/07 02:44:14;;;;;;;0.50;0.50;;;-0.20;99.90;;;;;;5004104;28;20032;-73
2022/03/07 02:46:40;;;;;;;0.13;0.13;;;-0.20;99.90;;;;;;4999956;28;20133;-73
2022/03/07 02:49:07;;;;;;;0.20;0.20;;;-0.20;99.90;;;;;;4993936;28;20124;-73
2022/03/07 02:51:33;;;;;;;0.45;0.22;;;-0.30;99.90;;;;;;4988677;28;20068;-73
2022/03/07 02:53:59;;;;;;;0.10;0.10;;;-0.30;99.90;;;;;;4995025;28;20128;-73
2022/03/07 02:56:25;;;;;;;0.30;0.30;;;-0.30;99.90;;;;;;4974662;28;20124;-73
2022/03/07 02:58:50;;;;;;;0.30;0.30;;;-0.30;99.90;;;;;;4991921;28;20033;-72
2022/03/07 03:01:16;;;;;;;0.20;0.15;;;-0.30;99.90;;;;;;4980256;28;20045;-73
2022/03/07 03:03:42;;;;;;;0.32;0.20;;;-0.30;99.90;;;;;;5003424;28;20598;-72
2022/03/07 03:06:08;;;;;;;0.20;0.20;;;-0.30;99.90;;;;;;4991389;28;20042;-72
2022/03/07 03:08:34;;;;;;;0.82;0.50;;;-0.40;99.90;;;;;;4990861;28;20052;-73
2022/03/07 03:11:01;;;;;;;1.17;0.70;;;-0.40;99.90;;;;;;4991992;28;20033;-73
2022/03/07 03:13:27;;;;;;;0.85;0.45;;;-0.50;99.90;;;;;;4991790;28;20049;-72
2022/03/07 03:15:54;;;;;;;1.88;0.90;;;-0.50;99.90;;;;;;4997467;28;20084;-72
2022/03/07 03:18:20;;;;;;;0.57;0.40;;;-0.50;99.90;;;;;;4999509;28;20131;-72
2022/03/07 03:20:50;;;;;;;0.15;0.15;;;-0.50;99.90;;;;;;4993674;28;20034;-72
2022/03/07 03:23:16;;;;;;;0.88;0.82;;;-0.50;99.90;;;;;;4999128;28;20568;-72
2022/03/07 03:25:42;;;;;;;0.30;0.20;;;-0.50;99.90;;;;;;5000184;28;20602;-73
2022/03/07 03:28:08;;;;;;;0.10;0.10;;;-0.60;99.90;;;;;;4991768;28;20041;-72
2022/03/07 03:30:34;;;;;;;1.05;0.93;;;-0.60;99.90;;;;;;4978668;28;20038;-72
2022/03/07 03:33:00;;;;;;;0.55;0.32;;;-0.50;99.90;;;;;;5009441;28;20061;-72
2022/03/07 03:35:26;;;;;;;0.65;0.65;;;-0.50;99.90;;;;;;4977125;28;20057;-73
2022/03/07 03:37:51;;;;;;;0.30;0.30;;;-0.50;99.90;;;;;;4983316;28;20412;-73
2022/03/07 03:40:17;;;;;;;0.90;0.20;;;-0.60;99.90;;;;;;4982804;28;20050;-73
2022/03/07 03:42:43;;;;;;;2.10;0.30;;;-0.40;99.90;;;;;;4984088;28;20066;-72
2022/03/07 03:45:10;;;;;;;0.75;0.63;;;-0.60;99.90;;;;;;4979708;28;20061;-72
2022/03/07 03:47:38;;;;;;;0.35;0.32;;;-0.70;99.90;;;;;;4968706;28;20050;-72
2022/03/07 03:50:07;;;;;;;0.10;0.10;;;-0.70;99.90;;;;;;4960601;28;20038;-72
2022/03/07 03:52:33;;;;;;;0.10;0.10;;;-0.70;99.90;;;;;;4964012;28;20042;-72
2022/03/07 03:54:58;;;;;;;0.13;0.13;;;-0.70;99.90;;;;;;4982561;28;20038;-72
2022/03/07 03:57:24;;;;;;;0.45;0.22;;;-0.70;99.90;;;;;;4989264;28;20081;-72
2022/03/07 03:59:50;;;;;;;0.50;0.50;;;-0.80;99.90;;;;;;4990113;28;20045;-72
2022/03/07 04:02:16;;;;;;;0.10;0.10;;;-0.70;99.90;;;;;;4994727;28;20117;-72
2022/03/07 04:04:42;;;;;;;0.13;0.13;;;-0.70;99.90;;;;;;4996640;28;20403;-72
2022/03/07 04:07:07;;;;;;;0.20;0.20;;;-0.70;99.90;;;;;;5003183;28;20375;-72
2022/03/07 04:09:33;;;;;;;0.73;0.73;;;-0.80;99.90;;;;;;4993761;28;20054;-72
2022/03/07 04:11:59;;;;;;;0.52;0.52;;;-0.70;99.90;;;;;;5002815;28;20518;-72
2022/03/07 04:14:25;;;;;;;1.35;0.88;;;-0.80;99.90;;;;;;4977917;28;20049;-72
2022/03/07 04:16:50;;;;;;;0.30;0.30;;;-0.80;99.90;;;;;;4994068;28;20046;-72
2022/03/07 04:19:16;;;;;;;0.40;0.40;;;-0.80;99.90;;;;;;4976691;28;20507;-72
2022/03/07 04:21:42;;;;;;;1.08;0.43;;;-0.80;99.90;;;;;;5002608;28;20045;-72
2022/03/07 04:24:09;;;;;;;0.43;0.43;;;-0.80;99.90;;;;;;5010657;28;20042;-72
2022/03/07 04:26:35;;;;;;;3.92;0.43;;;-0.70;99.90;;;;;;4979748;28;20435;-72
2022/03/07 04:29:01;;;;;;;0.43;0.43;;;-0.70;99.90;;;;;;4988598;28;20042;-72
2022/03/07 04:31:26;;;;;;;0.20;0.20;;;-0.70;99.90;;;;;;4988814;28;20044;-72
2022/03/07 04:33:52;;;;;;;0.20;0.20;;;-0.70;99.90;;;;;;4981481;28;20046;-72
2022/03/07 04:36:19;;;;;;;0.10;0.10;;;-0.70;99.90;;;;;;4986949;28;20042;-72
2022/03/07 04:38:45;;;;;;;3.97;0.20;;;-0.70;99.90;;;;;;4992045;28;20177;-72
2022/03/07 04:41:11;;;;;;;0.08;0.08;;;-0.70;99.90;;;;;;4975735;28;20026;-72
2022/03/07 04:43:36;;;;;;;0.10;0.10;;;-0.60;99.90;;;;;;4959131;28;20065;-72
2022/03/07 04:46:02;;;;;;;1.55;0.32;;;-0.60;99.90;;;;;;4976080;28;20034;-72
2022/03/07 04:48:28;;;;;;;0.43;0.40;;;-0.50;99.90;;;;;;4979174;28;20061;-72
2022/03/07 04:50:53;;;;;;;0.10;0.10;;;-0.40;99.90;;;;;;4978426;28;20396;-72
2022/03/07 04:53:19;;;;;;;0.17;0.17;;;-0.50;99.90;;;;;;4973894;28;20038;-72
2022/03/07 04:55:45;;;;;;;0.20;0.20;;;-0.40;99.90;;;;;;4966060;28;20450;-72
2022/03/07 04:58:10;;;;;;;0.22;0.22;;;-0.40;99.90;;;;;;4979613;28;20049;-72
2022/03/07 05:00:36;;;;;;;0.30;0.30;;;-0.40;99.90;;;;;;4977536;28;20042;-72
2022/03/07 05:03:02;;;;;;;0.20;0.20;;;-0.50;99.90;;;;;;4980162;28;20389;-72
2022/03/07 05:05:27;;;;;;;0.10;0.10;;;-0.50;99.90;;;;;;4973169;28;20035;-72
2022/03/07 05:07:53;;;;;;;0.60;0.60;;;-0.50;99.90;;;;;;4973431;28;20137;-72
2022/03/07 05:10:20;;;;;;;0.55;0.55;;;-0.50;99.90;;;;;;4982755;28;20415;-72
2022/03/07 05:12:47;;;;;;;0.10;0.10;;;-0.50;99.90;;;;;;4956860;28;20046;-72
2022/03/07 05:15:12;;;;;;;0.90;0.50;;;-0.50;99.90;;;;;;4983958;28;20053;-72
2022/03/07 05:17:48;;;;;;;0.75;0.20;;;-0.50;99.90;;;;;;4960318;28;20042;-72
2022/03/07 05:20:15;;;;;;;0.20;0.20;;;-0.40;99.90;;;;;;4969749;28;20053;-72
2022/03/07 05:22:42;;;;;;;0.20;0.20;;;-0.50;99.90;;;;;;4978088;28;20034;-72
2022/03/07 05:25:08;;;;;;;0.20;0.20;;;-0.50;99.90;;;;;;4976149;28;20616;-72
2022/03/07 05:27:35;;;;;;;0.22;0.22;;;-0.60;99.90;;;;;;4957792;28;20046;-72
2022/03/07 05:30:01;;;;;;;0.30;0.30;;;-0.50;99.90;;;;;;4961645;28;20042;-72
2022/03/07 05:32:26;;;;;;;0.40;0.40;;;-0.60;99.90;;;;;;4961227;28;20058;-72
2022/03/07 05:34:52;;;;;;;0.60;0.20;;;-0.60;99.90;;;;;;4994908;28;20045;-72
2022/03/07 05:37:17;;;;;;;0.10;0.10;;;-0.50;99.90;;;;;;4993096;28;20443;-72
2022/03/07 05:39:43;;;;;;;1.60;0.80;;;-0.50;99.90;;;;;;4992811;28;20042;-72
2022/03/07 05:42:09;;;;;;;0.20;0.20;;;-0.50;99.90;;;;;;4993164;28;20081;-72
2022/03/07 05:44:34;;;;;;;0.25;0.25;;;-0.60;99.90;;;;;;4986700;28;20044;-72
2022/03/07 05:47:00;;;;;;;0.17;0.17;;;-0.60;99.90;;;;;;4994493;28;20053;-72
2022/03/07 05:49:25;;;;;;;0.68;0.68;;;-0.60;99.90;;;;;;4993227;28;20040;-72
2022/03/07 05:51:51;;;;;;;1.30;0.22;;;-0.60;99.90;;;;;;4998527;28;20469;-72
2022/03/07 05:54:16;;;;;;;0.22;0.22;;;-0.60;99.90;;;;;;5003909;28;20077;-72
2022/03/07 05:56:42;;;;;;;0.43;0.17;;;-0.60;99.90;;;;;;4980982;28;20399;-72
2022/03/07 05:59:08;;;;;;;0.25;0.25;;;-0.70;99.90;;;;;;4995697;28;20108;-72
2022/03/07 06:01:34;;;;;;;0.70;0.70;;;-0.70;99.90;;;;;;4978292;28;20070;-72
2022/03/07 06:03:59;;;;;;;0.10;0.10;;;-0.70;99.90;;;;;;5002975;28;20483;-72
2022/03/07 06:06:25;;;;;;;0.38;0.22;;;-0.70;99.90;;;;;;4993039;28;20040;-72
2022/03/07 06:08:51;;;;;;;0.20;0.20;;;-0.80;99.90;;;;;;5004446;28;20111;-73
2022/03/07 06:11:17;;;;;;;0.20;0.20;;;-0.80;99.90;;;;;;4995383;28;20125;-72
2022/03/07 06:13:43;;;;;;;0.35;0.30;;;-0.80;99.90;;;;;;4984244;28;20046;-72
2022/03/07 06:16:09;;;;;;;0.38;0.38;;;-0.80;99.90;;;;;;4973944;28;20087;-72
2022/03/07 06:18:34;;;;;;;0.32;0.32;;;-0.80;99.90;;;;;;5004892;28;20040;-72
2022/03/07 06:21:00;;;;;;;0.55;0.38;;;-0.80;99.90;;;;;;4992554;28;20033;-72
2022/03/07 06:23:26;;;;;;;0.40;0.40;;;-0.80;99.90;;;;;;5005186;28;20401;-73
2022/03/07 06:25:51;;;;;;;0.20;0.20;;;-0.70;99.90;;;;;;4983681;28;20038;-72
2022/03/07 06:28:17;;;;;;;0.17;0.17;;;-0.70;99.90;;;;;;5006660;28;20133;-72
2022/03/07 06:30:49;;;;;;;1.38;0.85;;;-0.60;99.90;;;;;;4983719;28;20045;-72
2022/03/07 06:33:15;;;;;;;0.32;0.32;;;-0.60;99.90;;;;;;5003606;28;20054;-72
2022/03/07 06:35:42;;;;;;;0.45;0.40;;;-0.60;99.90;;;;;;4985110;28;20102;-73
2022/03/07 06:38:07;;;;;;;0.50;0.22;;;-0.60;99.90;;;;;;4982880;28;20562;-72
2022/03/07 06:40:33;;;;;;;0.10;0.10;;;-0.60;99.90;;;;;;4980362;28;20069;-72
2022/03/07 06:43:00;;;;;;;0.77;0.77;;;-0.60;99.90;;;;;;4992009;28;20030;-73
2022/03/07 06:45:28;;;;;;;0.43;0.43;;;-0.60;99.90;;;;;;4996881;28;20112;-72
2022/03/07 06:47:53;;;;;;;1.27;1.20;;;-0.50;99.90;;;;;;4992355;28;20076;-72
2022/03/07 06:50:19;;;;;;;0.55;0.28;;;-0.40;99.90;;;;;;4996659;28;20077;-72
2022/03/07 06:52:45;;;;;;;0.13;0.13;;;-0.40;99.90;;;;;;4989252;28;20045;-72
2022/03/07 06:55:12;;;;;;;0.40;0.40;;;-0.40;99.90;;;;;;5000503;28;20049;-72
2022/03/07 06:57:38;;;;;;;0.08;0.08;;;-0.40;99.90;;;;;;4989789;28;20570;-72
2022/03/07 07:00:08;;;;;;;0.10;0.10;;;-0.30;99.90;;;;;;5002468;28;20038;-72
2022/03/07 07:02:34;;;;;;;0.30;0.30;;;-0.30;99.90;;;;;;4983334;28;20038;-72
2022/03/07 07:05:02;;;;;;;3.45;0.73;;;-0.20;99.90;;;;;;4986769;28;20495;-72
2022/03/07 07:07:29;;;;;;;2.38;0.30;;;-0.30;99.90;;;;;;4982353;28;20042;-72
2022/03/07 07:09:55;;;;;;;0.73;0.63;;;-0.30;99.90;;;;;;4993234;28;20407;-72
2022/03/07 07:12:20;;;;;;;0.22;0.22;;;-0.30;99.90;;;;;;4990257;28;20050;-72
2022/03/07 07:14:46;;;;;;;0.15;0.15;;;-0.30;99.90;;;;;;4971415;28;20053;-72
2022/03/07 07:17:12;;;;;;;0.20;0.20;;;-0.20;99.90;;;;;;4990948;28;20049;-72
2022/03/07 07:19:37;;;;;;;0.73;0.70;;;-0.20;99.90;;;;;;4989535;28;20038;-72
2022/03/07 07:22:03;;;;;;;0.88;0.70;;;-0.20;99.90;;;;;;4989231;28;20030;-72
2022/03/07 07:24:29;;;;;;;0.85;0.68;;;-0.20;99.90;;;;;;4984150;28;20076;-72
2022/03/07 07:26:54;;;;;;;0.32;0.32;;;-0.20;99.90;;;;;;4981335;28;20703;-72
2022/03/07 07:29:20;;;;;;;1.48;1.00;;;-0.10;99.90;;;;;;4976034;28;20408;-72
2022/03/07 07:31:47;;;;;;;1.48;0.80;;;0.00;99.90;;;;;;4986597;28;20822;-72
2022/03/07 07:34:13;;;;;;;0.30;0.30;;;0.00;99.90;;;;;;4986337;28;20053;-72
2022/03/07 07:36:39;;;;;;;0.10;0.10;;;0.10;99.90;;;;;;4991528;28;20045;-72
2022/03/07 07:39:04;;;;;;;5.30;0.45;;;0.10;99.90;;;;;;4992220;28;20407;-72
2022/03/07 07:41:30;;;;;;;4.68;0.63;;;0.10;99.90;;;;;;4990059;28;20125;-72
2022/03/07 07:43:55;;;;;;;1.25;0.35;;;0.20;99.90;;;;;;4988755;28;20278;-72
2022/03/07 07:46:21;;;;;;;0.57;0.57;;;0.20;99.90;;;;;;4983172;28;20377;-72
2022/03/07 07:48:46;;;;;;;0.38;0.35;;;0.20;99.90;;;;;;4992091;28;20045;-72
2022/03/07 07:51:12;;;;;;;0.65;0.65;;;0.30;99.90;;;;;;4977044;28;20078;-72
2022/03/07 07:53:38;;;;;;;0.30;0.30;;;0.30;99.90;;;;;;4976822;28;20052;-73
2022/03/07 07:56:04;;;;;;;0.15;0.15;;;0.40;99.90;;;;;;4991519;28;20050;-72
2022/03/07 07:58:30;;;;;;;0.47;0.47;;;0.40;99.90;;;;;;4991000;28;20033;-72
2022/03/07 08:00:55;;;;;;;0.47;0.20;;;0.50;99.90;;;;;;5012536;28;20091;-72
2022/03/07 08:03:21;;;;;;;3.50;0.50;;;0.50;99.90;;;;;;4993784;28;20526;-72
2022/03/07 08:05:48;;;;;;;1.13;0.75;;;0.60;99.90;;;;;;4982767;28;20120;-72
2022/03/07 08:08:15;;;;;;;1.65;0.65;;;0.60;99.90;;;;;;4990239;28;20050;-72
2022/03/07 08:10:40;;;;;;;0.20;0.20;;;0.60;99.90;;;;;;4975697;28;20124;-72
2022/03/07 08:13:06;;;;;;;0.68;0.68;;;0.70;99.90;;;;;;4989436;28;20667;-72
2022/03/07 08:15:32;;;;;;;0.30;0.30;;;0.80;99.90;;;;;;4982563;28;20044;-71
2022/03/07 08:17:58;;;;;;;0.55;0.55;;;0.80;99.90;;;;;;4984481;28;20046;-71
2022/03/07 08:20:23;;;;;;;0.10;0.10;;;0.90;99.90;;;;;;4985977;28;20077;-71
2022/03/07 08:22:49;;;;;;;0.43;0.20;;;0.90;99.90;;;;;;4988105;28;20475;-71
2022/03/07 08:25:15;;;;;;;0.20;0.20;;;0.90;99.90;;;;;;4990359;28;20319;-71
2022/03/07 08:27:41;;;;;;;0.65;0.60;;;1.00;99.90;;;;;;4989763;28;20510;-72
2022/03/07 08:30:10;;;;;;;0.25;0.25;;;1.00;99.90;;;;;;4993230;28;20030;-71
2022/03/07 08:32:37;;;;;;;0.30;0.30;;;1.10;99.90;;;;;;4991948;28;20029;-71
2022/03/07 08:35:05;;;;;;;0.60;0.30;;;1.20;99.90;;;;;;4997356;28;20042;-71
2022/03/07 08:37:31;;;;;;;0.10;0.10;;;1.30;99.90;;;;;;4992055;28;20397;-70
2022/03/07 08:39:56;;;;;;;0.30;0.30;;;1.40;99.90;;;;;;4975089;28;20068;-71
2022/03/07 08:42:22;;;;;;;1.05;0.65;;;1.50;99.90;;;;;;4995330;28;20033;-71
2022/03/07 08:44:50;;;;;;;0.68;0.40;;;1.50;99.90;;;;;;4974681;28;20033;-71
2022/03/07 08:47:15;;;;;;;0.28;0.25;;;1.60;99.90;;;;;;4987124;28;20046;-71
2022/03/07 08:49:41;;;;;;;1.58;0.47;;;1.70;99.90;;;;;;4978043;28;20052;-70
2022/03/07 08:52:07;;;;;;;0.65;0.65;;;1.70;99.90;;;;;;4997493;28;20045;-70
2022/03/07 08:54:32;;;;;;;0.45;0.45;;;1.80;99.90;;;;;;4994019;28;20038;-71
2022/03/07 08:56:58;;;;;;;0.70;0.30;;;1.90;99.90;;;;;;4987908;28;20060;-71
2022/03/07 08:59:28;;;;;;;0.70;0.52;;;2.00;99.90;;;;;;4991179;28;20029;-71
2022/03/07 09:01:56;;;;;;;0.73;0.17;;;2.00;99.90;;;;;;4995869;28;20038;-71
2022/03/07 09:04:24;;;;;;;0.20;0.20;;;2.10;99.90;;;;;;4996534;28;20517;-70
2022/03/07 09:06:52;;;;;;;0.50;0.28;;;2.20;99.90;;;;;;4983851;28;20128;-71
2022/03/07 09:09:18;;;;;;;0.13;0.13;;;2.30;99.90;;;;;;4995922;28;20038;-71
2022/03/07 09:11:44;;;;;;;0.47;0.47;;;2.30;99.90;;;;;;4978078;28;20121;-71
2022/03/07 09:14:09;;;;;;;0.50;0.43;;;2.40;99.90;;;;;;4982410;28;20034;-71
2022/03/07 09:16:35;;;;;;;0.70;0.60;;;2.40;99.90;;;;;;4986666;28;20038;-69
2022/03/07 09:19:01;;;;;;;0.00;0.00;;;2.50;99.90;;;;;;4985356;28;20069;-69
2022/03/07 09:21:27;;;;;;;0.00;0.00;;;2.50;99.90;;;;;;4985735;28;20049;-70
2022/03/07 09:23:52;;;;;;;0.28;0.20;;;2.60;99.90;;;;;;4993518;28;20564;-70
2022/03/07 09:26:18;;;;;;;0.35;0.10;;;2.60;99.90;;;;;;4990921;28;20041;-70
2022/03/07 09:28:44;;;;;;;0.20;0.20;;;2.60;99.90;;;;;;4996981;28;20041;-69
2022/03/07 09:31:10;;;;;;;1.48;0.93;;;2.70;99.90;;;;;;4987976;28;20041;-70
2022/03/07 09:33:36;;;;;;;0.00;0.00;;;2.70;99.90;;;;;;4987141;28;20201;-70
2022/03/07 09:36:03;;;;;;;0.10;0.10;;;2.80;99.90;;;;;;4973969;28;20045;-70
2022/03/07 09:38:29;;;;;;;0.32;0.32;;;2.80;99.90;;;;;;4975592;28;20042;-70
2022/03/07 09:40:55;;;;;;;0.00;0.00;;;2.90;99.90;;;;;;4987989;28;20038;-70
2022/03/07 09:43:22;;;;;;;0.10;0.10;;;2.90;99.90;;;;;;4986193;28;20045;-70
2022/03/07 09:45:48;;;;;;;0.30;0.30;;;3.00;99.90;;;;;;4995664;28;20036;-72
2022/03/07 09:48:14;;;;;;;0.00;0.00;;;3.00;99.90;;;;;;4980988;28;20068;-70
2022/03/07 09:50:41;;;;;;;0.93;0.20;;;3.00;99.90;;;;;;4983019;28;20415;-70
2022/03/07 09:53:08;;;;;;;1.15;0.40;;;3.10;99.90;;;;;;4981447;28;20041;-70
2022/03/07 09:55:34;;;;;;;0.20;0.20;;;3.10;99.90;;;;;;4988200;28;20049;-71
2022/03/07 09:57:59;;;;;;;0.10;0.10;;;3.10;99.90;;;;;;4993750;28;20037;-70
2022/03/07 10:00:25;;;;;;;0.65;0.35;;;3.20;99.90;;;;;;4993091;28;20399;-70
2022/03/07 10:03:00;;;;;;;0.10;0.10;;;3.30;99.90;;;;;;4978674;28;20229;-70
2022/03/07 10:05:32;;;;;;;0.20;0.10;;;3.40;99.90;;;;;;4959911;28;20053;-70
2022/03/07 10:07:58;;;;;;;0.05;0.00;;;3.50;99.90;;;;;;4985159;28;20171;-70
2022/03/07 10:10:32;;;;;;;0.00;0.00;;;3.60;99.90;;;;;;4963366;28;20165;-70
2022/03/07 10:13:05;;;;;;;0.20;0.20;;;3.60;99.90;;;;;;4989325;28;20050;-71
2022/03/07 10:15:30;;;;;;;0.25;0.13;;;3.70;99.90;;;;;;4988366;28;20425;-72
2022/03/07 10:17:56;;;;;;;1.88;0.20;;;3.70;99.90;;;;;;4994258;28;20044;-74
2022/03/07 10:20:24;;;;;;;0.00;0.00;;;3.70;99.90;;;;;;4973245;28;20277;-75
2022/03/07 10:22:52;;;;;;;0.10;0.10;;;3.70;99.90;;;;;;4979036;28;20041;-74
2022/03/07 10:25:23;;;;;;;0.10;0.10;;;3.70;99.90;;;;;;4980144;28;20495;-75
2022/03/07 10:27:50;;;;;;;0.75;0.57;;;3.80;99.90;;;;;;4988566;28;20546;-74
2022/03/07 10:30:25;;;;;;;1.58;0.32;;;3.90;99.90;;;;;;4987340;28;20038;-75
2022/03/07 10:32:59;;;;;;;1.07;0.30;;;3.90;99.90;;;;;;4964394;28;20046;-75
2022/03/07 10:35:30;;;;;;;0.00;0.00;;;4.00;99.90;;;;;;4959705;28;20472;-76
2022/03/07 10:38:03;;;;;;;0.05;0.05;;;4.10;99.90;;;;;;4944961;28;20073;-77
2022/03/07 10:40:29;;;;;;;0.20;0.20;;;4.10;99.90;;;;;;4959224;28;20049;-76
2022/03/07 10:42:55;;;;;;;0.60;0.20;;;4.20;99.90;;;;;;4953459;28;20043;-78
2022/03/07 10:45:22;;;;;;;0.52;0.30;;;4.10;99.90;;;;;;4955933;28;20046;-77
2022/03/07 10:47:53;;;;;;;0.03;0.03;;;4.10;99.90;;;;;;4958237;28;20042;-77
2022/03/07 10:50:23;;;;;;;0.10;0.10;;;4.10;99.90;;;;;;4966630;28;20392;-78
2022/03/07 10:52:51;;;;;;;0.20;0.20;;;4.10;99.90;;;;;;4972315;28;20077;-78
2022/03/07 10:55:23;;;;;;;0.10;0.10;;;4.10;99.90;;;;;;4961749;28;20068;-78
2022/03/07 10:57:49;;;;;;;0.10;0.10;;;4.10;99.90;;;;;;4950246;28;20477;-78
2022/03/07 11:00:21;;;;;;;0.30;0.22;;;4.20;99.90;;;;;;4966030;28;20077;-77
2022/03/07 11:02:49;;;;;;;0.47;0.43;;;4.20;99.90;;;;;;4971441;28;20234;-77
2022/03/07 11:05:17;;;;;;;0.20;0.20;;;4.30;99.90;;;;;;4950116;28;20031;-78
2022/03/07 11:07:45;;;;;;;0.25;0.13;;;4.30;99.90;;;;;;4961218;28;20116;-79
2022/03/07 11:10:13;;;;;;;0.20;0.20;;;4.40;99.90;;;;;;4963854;28;20050;-78
2022/03/07 11:12:40;;;;;;;0.25;0.20;;;4.40;99.90;;;;;;4967039;28;20121;-79
2022/03/07 11:15:08;;;;;;;0.40;0.40;;;4.50;99.90;;;;;;4965781;28;20042;-79
2022/03/07 11:17:41;;;;;;;0.10;0.10;;;4.60;99.90;;;;;;4968182;28;20059;-79
2022/03/07 11:20:08;;;;;;;0.20;0.20;;;4.60;99.90;;;;;;4955292;28;20053;-86
2022/03/07 11:22:35;;;;;;;0.00;0.00;;;4.60;99.90;;;;;;4973224;28;21709;-79
2022/03/07 11:25:02;;;;;;;0.00;0.00;;;4.70;99.90;;;;;;4955108;28;20037;-79
2022/03/07 11:27:28;;;;;;;0.52;0.20;;;4.80;99.90;;;;;;4956504;28;20399;-80
2022/03/07 11:29:55;;;;;;;0.10;0.10;;;4.90;99.90;;;;;;4954000;28;20038;-84
2022/03/07 11:32:21;;;;;;;0.10;0.10;;;5.00;99.90;;;;;;4952242;28;20042;-91
2022/03/07 11:34:59;;;;;;;0.00;0.00;;;5.10;99.90;;;;;;4990847;28;20062;-92
2022/03/07 11:37:30;;;;;;;0.00;0.00;;;5.10;99.90;;;;;;4993917;28;20740;-92
2022/03/07 11:40:00;;;;;;;0.28;0.28;;;5.10;99.90;;;;;;4974470;28;20034;-91
2022/03/07 11:42:37;;;;;;;0.32;0.25;;;5.00;99.90;;;;;;4987736;28;20045;-89
2022/03/07 11:45:09;;;;;;;0.10;0.10;;;5.10;99.90;;;;;;4989421;28;20034;-88
2022/03/07 11:47:39;;;;;;;0.20;0.20;;;5.10;99.90;;;;;;4985953;28;20049;-90
2022/03/07 11:50:06;;;;;;;0.10;0.10;;;5.10;99.90;;;;;;4973342;28;20487;-91
2022/03/07 11:52:32;;;;;;;0.17;0.17;;;5.10;99.90;;;;;;4967880;28;20495;-91
2022/03/07 11:55:02;;;;;;;0.20;0.20;;;5.20;99.90;;;;;;4987197;28;20537;-90
2022/03/07 11:57:34;;;;;;;0.10;0.10;;;5.20;99.90;;;;;;4978481;28;20437;-91
2022/03/07 12:00:23;;;;;;;0.10;0.10;;;5.20;99.90;;;;;;4973633;28;20050;-92
2022/03/07 12:03:00;;;;;;;0.00;0.00;;;5.20;99.90;;;;;;4977838;28;20044;-88
2022/03/07 12:05:28;;;;;;;0.17;0.17;;;5.30;99.20;;;;;;4978639;28;20026;-90
2022/03/07 12:08:10;;;;;;;1.20;0.20;;;5.30;99.90;;;;;;4984033;28;20036;-88
2022/03/07 12:10:57;;;;;;;0.00;0.00;;;5.20;99.90;;;;;;4978631;28;20251;-89
2022/03/07 12:13:23;;;;;;;0.10;0.10;;;5.20;99.90;;;;;;4973796;28;20339;-89
2022/03/07 12:15:57;;;;;;;0.10;0.10;;;5.20;99.90;;;;;;4984418;28;20061;-88
2022/03/07 12:18:24;;;;;;;0.32;0.20;;;5.20;99.90;;;;;;4971300;28;20038;-92
2022/03/07 12:20:58;;;;;;;0.17;0.13;;;5.20;99.90;;;;;;4991875;28;20411;-89
2022/03/07 12:23:26;;;;;;;1.33;0.55;;;5.20;99.90;;;;;;4990880;28;20181;-87
2022/03/07 12:26:09;;;;;;;0.10;0.10;;;5.20;99.90;;;;;;4976975;28;20522;-90
2022/03/07 12:28:40;;;;;;;0.20;0.20;;;5.30;99.90;;;;;;5001414;28;20045;-89
2022/03/07 12:31:07;;;;;;;1.00;0.20;;;5.30;99.10;;;;;;4993894;28;20030;-89
2022/03/07 12:33:33;;;;;;;0.00;0.00;;;5.30;99.90;;;;;;4980060;28;20058;-91
2022/03/07 12:36:01;;;;;;;0.08;0.08;;;5.30;99.90;;;;;;4972867;28;20138;-91
2022/03/07 12:38:27;;;;;;;0.43;0.25;;;5.30;99.90;;;;;;4968921;28;20042;-93
2022/03/07 12:40:54;;;;;;;0.20;0.20;;;5.30;99.90;;;;;;4965351;28;20041;-93
2022/03/07 12:43:20;;;;;;;0.00;0.00;;;5.30;99.90;;;;;;4969902;28;20117;-92
2022/03/07 12:45:47;;;;;;;0.10;0.10;;;5.30;98.20;;;;;;4952820;28;20121;-92
2022/03/07 12:48:15;;;;;;;0.00;0.00;;;5.40;99.40;;;;;;4958680;28;20078;-92
2022/03/07 12:50:41;;;;;;;0.10;0.10;;;5.50;99.90;;;;;;4958698;28;20547;-92